createdAt,value
2022-09-27T00:01:57.390Z,6.53
2022-09-27T00:04:27.219Z,5.97
2022-09-27T00:06:54.914Z,6.30
2022-09-27T00:09:22.318Z,7.13
2022-09-27T00:11:51.092Z,4.72
2022-09-27T00:14:22.266Z,6.35
2022-09-27T00:16:50.156Z,9.10
2022-09-27T00:19:19.299Z,4.40
2022-09-27T00:21:47.517Z,4.85
2022-09-27T00:24:17.300Z,5.15
2022-09-27T00:26:47.461Z,5.43
2022-09-27T00:29:16.382Z,9.23
2022-09-27T00:31:43.989Z,5.30
2022-09-27T00:34:20.504Z,3.40
2022-09-27T00:36:48.270Z,4.72
2022-09-27T00:39:16.783Z,5.70
2022-09-27T00:41:45.000Z,5.73
2022-09-27T00:44:33.854Z,8.18
2022-09-27T00:47:05.110Z,5.97
2022-09-27T00:49:38.451Z,8.23
2022-09-27T00:52:15.439Z,3.40
2022-09-27T00:54:45.513Z,9.70
2022-09-27T00:57:15.217Z,6.13
2022-09-27T00:59:47.111Z,3.28
2022-09-27T01:02:18.134Z,6.10
2022-09-27T01:04:51.786Z,8.50
2022-09-27T01:07:22.170Z,5.53
2022-09-27T01:09:52.675Z,11.45
2022-09-27T01:12:33.899Z,8.43
2022-09-27T01:15:01.788Z,5.75
2022-09-27T01:17:45.348Z,7.35
2022-09-27T01:20:15.937Z,5.15
2022-09-27T01:23:02.465Z,4.90
2022-09-27T01:25:30.278Z,7.95
2022-09-27T01:28:10.072Z,4.80
2022-09-27T01:30:40.630Z,9.25
2022-09-27T01:33:12.210Z,8.25
2022-09-27T01:35:40.000Z,3.70
2022-09-27T01:38:12.663Z,7.50
2022-09-27T01:41:00.854Z,8.65
2022-09-27T01:43:46.213Z,10.75
2022-09-27T01:46:22.018Z,9.88
2022-09-27T01:49:22.327Z,7.68
2022-09-27T01:52:00.186Z,7.53
2022-09-27T01:54:36.615Z,8.57
2022-09-27T01:57:38.743Z,8.20
2022-09-27T02:00:13.120Z,6.38
2022-09-27T02:02:47.621Z,8.98
2022-09-27T02:05:40.315Z,9.63
2022-09-27T02:08:52.874Z,8.70
2022-09-27T02:11:40.227Z,10.95
2022-09-27T02:14:20.973Z,7.15
2022-09-27T02:17:00.053Z,9.95
2022-09-27T02:19:44.154Z,8.63
2022-09-27T02:22:28.589Z,8.80
2022-09-27T02:24:59.780Z,5.47
2022-09-27T02:27:37.872Z,9.13
2022-09-27T02:30:20.291Z,9.77
2022-09-27T02:32:55.588Z,14.52
2022-09-27T02:35:42.812Z,8.75
2022-09-27T02:38:11.448Z,8.07
2022-09-27T02:40:52.802Z,5.45
2022-09-27T02:43:21.153Z,8.50
2022-09-27T02:46:10.253Z,11.63
2022-09-27T02:51:06.112Z,8.75
2022-09-27T02:54:09.140Z,11.57
2022-09-27T02:56:59.603Z,4.82
2022-09-27T03:00:04.419Z,7.35
2022-09-27T03:03:10.727Z,11.15
2022-09-27T03:05:51.793Z,7.07
2022-09-27T03:08:20.302Z,8.13
2022-09-27T03:10:48.323Z,7.47
2022-09-27T03:13:19.399Z,12.88
2022-09-27T03:15:47.487Z,14.75
2022-09-27T03:19:02.076Z,5.38
2022-09-27T03:21:48.271Z,9.27
2022-09-27T03:26:51.099Z,8.18
2022-09-27T03:29:21.683Z,9.35
2022-09-27T03:32:02.254Z,8.60
2022-09-27T03:34:55.242Z,8.18
2022-09-27T03:37:29.594Z,6.85
2022-09-27T03:39:59.512Z,4.65
2022-09-27T03:42:27.607Z,9.63
2022-09-27T03:44:55.466Z,10.73
2022-09-27T03:47:23.348Z,5.72
2022-09-27T03:49:53.546Z,5.97
2022-09-27T03:52:21.317Z,7.82
2022-09-27T03:54:48.799Z,10.60
2022-09-27T03:57:22.421Z,5.47
2022-09-27T03:59:50.694Z,6.68
2022-09-27T04:02:47.557Z,4.03
2022-09-27T04:08:02.204Z,7.93
2022-09-27T04:10:34.602Z,6.50
2022-09-27T04:13:11.333Z,9.73
2022-09-27T04:15:52.357Z,4.97
2022-09-27T04:18:48.966Z,7.75
2022-09-27T04:21:45.534Z,4.43
2022-09-27T04:24:16.348Z,7.60
2022-09-27T04:27:10.327Z,6.40
2022-09-27T04:29:43.318Z,5.57
2022-09-27T04:32:28.135Z,6.50
2022-09-27T04:35:38.773Z,7.50
2022-09-27T04:38:13.739Z,6.85
2022-09-27T04:40:42.146Z,4.05
2022-09-27T04:43:36.941Z,4.30
2022-09-27T04:46:10.617Z,7.70
2022-09-27T04:48:38.529Z,5.72
2022-09-27T04:51:11.472Z,6.13
2022-09-27T04:53:49.673Z,4.85
2022-09-27T04:56:19.740Z,4.53
2022-09-27T04:58:47.830Z,4.30
2022-09-27T05:01:21.548Z,4.10
2022-09-27T05:04:10.114Z,5.55
2022-09-27T05:06:40.777Z,6.28
2022-09-27T05:09:21.438Z,3.80
2022-09-27T05:11:59.270Z,7.45
2022-09-27T05:14:48.723Z,5.22
2022-09-27T05:17:19.959Z,6.20
2022-09-27T05:19:47.664Z,3.33
2022-09-27T05:22:20.305Z,5.13
2022-09-27T05:24:48.312Z,3.67
2022-09-27T05:27:20.420Z,4.63
2022-09-27T05:29:51.094Z,4.30
2022-09-27T05:32:33.468Z,6.63
2022-09-27T05:35:21.107Z,4.05
2022-09-27T05:37:55.743Z,5.75
2022-09-27T05:40:43.055Z,5.30
2022-09-27T05:43:16.214Z,9.97
2022-09-27T05:45:50.557Z,6.90
2022-09-27T05:48:20.158Z,5.30
2022-09-27T05:50:56.657Z,5.53
2022-09-27T05:53:26.927Z,8.98
2022-09-27T05:55:58.890Z,7.22
2022-09-27T05:58:58.263Z,5.45
2022-09-27T06:01:31.503Z,7.20
2022-09-27T06:04:17.911Z,7.45
2022-09-27T06:07:20.843Z,7.43
2022-09-27T06:09:54.471Z,8.30
2022-09-27T06:12:22.491Z,8.93
2022-09-27T06:14:50.365Z,5.97
2022-09-27T06:17:31.358Z,10.18
2022-09-27T06:19:59.294Z,8.13
2022-09-27T06:22:26.965Z,10.25
2022-09-27T06:25:00.259Z,6.85
2022-09-27T06:27:42.301Z,5.95
2022-09-27T06:30:24.608Z,5.95
2022-09-27T06:33:07.495Z,18.20
2022-09-27T06:35:40.661Z,5.75
2022-09-27T06:38:09.617Z,5.85
2022-09-27T06:40:45.794Z,5.40
2022-09-27T06:43:20.887Z,5.22
2022-09-27T06:46:07.601Z,6.28
2022-09-27T06:48:54.210Z,11.13
2022-09-27T06:51:25.747Z,8.40
2022-09-27T06:54:02.871Z,6.30
2022-09-27T06:56:36.852Z,11.05
2022-09-27T06:59:25.177Z,10.75
2022-09-27T07:02:15.048Z,7.25
2022-09-27T07:05:03.659Z,9.38
2022-09-27T07:08:15.040Z,8.60
2022-09-27T07:10:50.503Z,9.98
2022-09-27T07:13:18.513Z,8.23
2022-09-27T07:15:50.873Z,5.50
2022-09-27T07:18:22.749Z,8.05
2022-09-27T07:21:00.095Z,6.65
2022-09-27T07:23:32.146Z,8.07
2022-09-27T07:26:04.741Z,8.82
2022-09-27T07:28:38.223Z,8.48
2022-09-27T07:31:12.069Z,11.73
2022-09-27T07:33:43.324Z,9.88
2022-09-27T07:36:18.532Z,6.65
2022-09-27T07:38:55.070Z,9.43
2022-09-27T07:41:25.846Z,9.45
2022-09-27T07:44:00.142Z,9.68
2022-09-27T07:46:31.054Z,4.35
2022-09-27T07:49:10.130Z,6.82
2022-09-27T07:54:56.795Z,6.82
2022-09-27T07:57:58.134Z,11.13
2022-09-27T08:00:26.904Z,12.35
2022-09-27T08:02:57.218Z,9.35
2022-09-27T08:05:24.943Z,10.82
2022-09-27T08:07:57.384Z,14.13
2022-09-27T08:10:34.774Z,6.38
2022-09-27T08:13:03.723Z,8.05
2022-09-27T08:15:36.276Z,9.05
2022-09-27T08:18:10.108Z,6.53
2022-09-27T08:20:59.307Z,7.75
2022-09-27T08:23:31.275Z,4.18
2022-09-27T08:26:25.114Z,5.20
2022-09-27T08:29:03.627Z,7.00
2022-09-27T08:31:34.437Z,6.10
2022-09-27T08:34:13.984Z,5.38
2022-09-27T08:36:44.177Z,8.38
2022-09-27T08:39:12.563Z,4.75
2022-09-27T08:41:45.191Z,10.27
2022-09-27T08:44:26.795Z,10.93
2022-09-27T08:47:25.373Z,8.38
2022-09-27T08:50:16.225Z,8.27
2022-09-27T08:52:47.888Z,8.37
2022-09-27T08:55:37.136Z,9.02
2022-09-27T08:58:18.497Z,4.35
2022-09-27T09:00:46.653Z,6.45
2022-09-27T09:03:20.667Z,8.23
2022-09-27T09:05:53.770Z,6.57
2022-09-27T09:08:41.297Z,8.10
2022-09-27T09:11:33.363Z,5.80
2022-09-27T09:14:19.418Z,5.22
2022-09-27T09:17:08.583Z,5.18
2022-09-27T09:19:58.787Z,10.10
2022-09-27T09:22:44.525Z,8.02
2022-09-27T09:25:12.370Z,8.82
2022-09-27T09:27:51.925Z,4.78
2022-09-27T09:33:03.180Z,7.05
2022-09-27T09:35:37.740Z,7.43
2022-09-27T09:38:08.440Z,8.27
2022-09-27T09:40:37.653Z,7.13
2022-09-27T09:45:43.301Z,6.60
2022-09-27T09:48:25.554Z,7.35
2022-09-27T09:50:56.223Z,7.55
2022-09-27T09:53:36.330Z,8.27
2022-09-27T09:58:46.175Z,4.22
2022-09-27T10:01:27.116Z,8.27
2022-09-27T10:04:07.137Z,5.75
2022-09-27T10:06:35.268Z,5.72
2022-09-27T10:09:08.465Z,3.95
2022-09-27T10:11:45.197Z,6.18
2022-09-27T10:14:27.541Z,6.30
2022-09-27T10:17:03.015Z,8.68
2022-09-27T10:19:32.081Z,7.10
2022-09-27T10:22:12.830Z,3.65
2022-09-27T10:24:56.331Z,2.85
2022-09-27T10:28:00.890Z,7.18
2022-09-27T10:30:34.218Z,4.88
2022-09-27T10:33:20.050Z,6.90
2022-09-27T10:35:54.466Z,8.43
2022-09-27T10:38:28.589Z,6.72
2022-09-27T10:41:29.029Z,8.35
2022-09-27T10:44:22.527Z,7.82
2022-09-27T10:46:59.887Z,4.32
2022-09-27T10:49:48.892Z,3.22
2022-09-27T10:52:36.310Z,6.22
2022-09-27T10:55:23.376Z,4.07
2022-09-27T10:57:56.928Z,7.65
2022-09-27T11:00:34.822Z,2.83
2022-09-27T11:03:16.238Z,4.07
2022-09-27T11:05:45.611Z,5.30
2022-09-27T11:08:30.456Z,3.17
2022-09-27T11:11:16.736Z,4.45
2022-09-27T11:14:19.740Z,7.30
2022-09-27T11:17:00.027Z,4.22
2022-09-27T11:19:47.397Z,3.30
2022-09-27T11:22:21.204Z,2.83
2022-09-27T11:25:07.262Z,4.22
2022-09-27T11:28:03.608Z,3.30
2022-09-27T11:30:41.916Z,11.52
2022-09-27T11:33:46.114Z,7.57
2022-09-27T11:36:44.333Z,2.90
2022-09-27T11:39:24.973Z,5.65
2022-09-27T11:42:00.895Z,6.45
2022-09-27T11:45:07.913Z,6.15
2022-09-27T11:47:46.335Z,5.15
2022-09-27T11:50:17.305Z,4.38
2022-09-27T11:53:00.049Z,3.35
2022-09-27T11:55:35.219Z,5.53
2022-09-27T11:58:11.223Z,6.30
2022-09-27T12:00:57.318Z,5.00
2022-09-27T12:03:28.755Z,4.78
2022-09-27T12:06:12.234Z,4.60
2022-09-27T12:08:54.450Z,8.48
2022-09-27T12:14:15.346Z,4.78
2022-09-27T12:16:46.109Z,3.67
2022-09-27T12:19:28.147Z,4.97
2022-09-27T12:22:54.037Z,4.00
2022-09-27T12:25:21.078Z,4.47
2022-09-27T12:28:10.631Z,6.40
2022-09-27T12:30:41.353Z,4.45
2022-09-27T12:33:17.341Z,12.05
2022-09-27T12:35:52.578Z,5.57
2022-09-27T12:38:32.350Z,4.75
2022-09-27T12:41:10.290Z,7.07
2022-09-27T12:43:50.925Z,7.78
2022-09-27T12:46:52.332Z,6.85
2022-09-27T12:49:24.185Z,9.80
2022-09-27T12:51:54.831Z,10.35
2022-09-27T12:54:35.908Z,5.03
2022-09-27T12:57:19.167Z,5.10
2022-09-27T13:00:10.908Z,12.80
2022-09-27T13:05:34.048Z,12.30
2022-09-27T13:08:14.025Z,8.80
2022-09-27T13:10:53.644Z,8.40
2022-09-27T13:13:28.760Z,7.78
2022-09-27T13:15:59.723Z,11.80
2022-09-27T13:19:08.855Z,5.45
2022-09-27T13:21:55.967Z,5.73
2022-09-27T13:24:41.658Z,5.80
2022-09-27T13:27:32.691Z,9.02
2022-09-27T13:30:09.417Z,8.40
2022-09-27T13:33:03.833Z,6.72
2022-09-27T13:36:21.193Z,6.15
2022-09-27T13:39:12.574Z,8.00
2022-09-27T13:42:05.076Z,6.22
2022-09-27T13:44:40.736Z,4.60
2022-09-27T13:47:27.828Z,2.53
2022-09-27T13:50:05.818Z,5.43
2022-09-27T13:53:13.014Z,5.82
2022-09-27T13:55:49.532Z,9.32
2022-09-27T13:58:34.159Z,7.93
2022-09-27T14:01:06.613Z,4.47
2022-09-27T14:03:38.349Z,3.20
2022-09-27T14:06:18.932Z,5.35
2022-09-27T14:08:59.296Z,6.88
2022-09-27T14:11:30.532Z,5.85
2022-09-27T14:14:00.134Z,6.15
2022-09-27T14:16:41.382Z,4.90
2022-09-27T14:19:19.621Z,8.23
2022-09-27T14:21:50.478Z,5.32
2022-09-27T14:24:54.816Z,5.78
2022-09-27T14:27:38.134Z,4.65
2022-09-27T14:30:30.799Z,4.03
2022-09-27T14:33:32.420Z,4.95
2022-09-27T14:36:32.710Z,5.85
2022-09-27T14:39:03.684Z,6.85
2022-09-27T14:41:42.245Z,11.23
2022-09-27T14:44:33.430Z,6.47
2022-09-27T14:47:29.475Z,8.98
2022-09-27T14:50:05.915Z,12.45
2022-09-27T14:52:40.003Z,4.18
2022-09-27T14:55:18.816Z,4.50
2022-09-27T14:58:05.556Z,8.25
2022-09-27T15:00:38.674Z,7.05
2022-09-27T15:03:10.225Z,4.22
2022-09-27T15:05:43.587Z,7.72
2022-09-27T15:08:12.967Z,7.20
2022-09-27T15:10:42.865Z,6.30
2022-09-27T15:13:17.806Z,4.72
2022-09-27T15:15:52.486Z,5.65
2022-09-27T15:18:48.471Z,9.35
2022-09-27T15:21:33.701Z,5.05
2022-09-27T15:24:02.863Z,13.55
2022-09-27T15:26:41.486Z,9.55
2022-09-27T15:29:24.344Z,10.55
2022-09-27T15:32:04.614Z,8.82
2022-09-27T15:34:34.619Z,13.00
2022-09-27T15:37:07.990Z,8.75
2022-09-27T15:39:45.966Z,9.55
2022-09-27T15:48:17.363Z,6.75
2022-09-27T15:50:47.266Z,4.85
2022-09-27T15:53:36.257Z,7.05
2022-09-27T15:56:12.469Z,6.13
2022-09-27T15:58:41.677Z,6.78
2022-09-27T16:01:31.588Z,5.13
2022-09-27T16:03:59.823Z,5.53
2022-09-27T16:06:33.221Z,5.90
2022-09-27T16:09:14.081Z,8.50
2022-09-27T16:11:59.932Z,5.18
2022-09-27T16:14:27.774Z,8.20
2022-09-27T16:16:59.873Z,4.43
2022-09-27T16:19:27.823Z,9.60
2022-09-27T16:21:55.649Z,5.07
2022-09-27T16:24:28.129Z,6.38
2022-09-27T16:27:26.256Z,6.47
2022-09-27T16:29:44.532Z,7.63
2022-09-27T16:32:12.551Z,4.70
2022-09-27T16:34:42.784Z,9.55
2022-09-27T16:37:28.082Z,6.80
2022-09-27T16:39:56.405Z,7.20
2022-09-27T16:42:34.365Z,4.25
2022-09-27T16:45:06.049Z,7.78
2022-09-27T16:47:45.895Z,6.50
2022-09-27T16:50:35.068Z,5.78
2022-09-27T16:53:02.986Z,4.38
2022-09-27T16:55:35.106Z,7.32
2022-09-27T16:58:11.608Z,5.78
2022-09-27T17:00:40.819Z,5.40
2022-09-27T17:03:09.223Z,7.35
2022-09-27T17:05:42.718Z,6.57
2022-09-27T17:08:17.744Z,10.60
2022-09-27T17:10:48.992Z,9.70
2022-09-27T17:13:19.244Z,12.63
2022-09-27T17:15:54.308Z,13.35
2022-09-27T17:18:37.251Z,10.75
2022-09-27T17:21:06.029Z,11.77
2022-09-27T17:23:35.827Z,10.00
2022-09-27T17:26:23.924Z,18.48
2022-09-27T17:28:59.394Z,13.20
2022-09-27T17:31:27.914Z,13.85
2022-09-27T17:34:00.292Z,10.95
2022-09-27T17:36:34.938Z,8.98
2022-09-27T17:39:05.277Z,10.85
2022-09-27T17:41:39.922Z,10.00
2022-09-27T17:44:14.924Z,13.98
2022-09-27T17:46:47.531Z,10.10
2022-09-27T17:49:39.024Z,9.70
2022-09-27T17:52:08.485Z,11.43
2022-09-27T17:54:44.593Z,10.90
2022-09-27T17:57:15.565Z,13.07
2022-09-27T17:59:49.752Z,13.48
2022-09-27T18:02:23.193Z,17.15
2022-09-27T18:04:55.518Z,17.08
2022-09-27T18:07:27.769Z,9.38
2022-09-27T18:10:05.516Z,14.20
2022-09-27T18:12:35.952Z,19.25
2022-09-27T18:15:06.126Z,14.07
2022-09-27T18:17:43.124Z,13.35
2022-09-27T18:20:11.186Z,14.20
2022-09-27T18:22:41.718Z,7.28
2022-09-27T18:25:12.262Z,10.32
2022-09-27T18:27:44.762Z,16.40
2022-09-27T18:30:12.813Z,10.90
2022-09-27T18:32:47.486Z,11.38
2022-09-27T18:35:19.843Z,12.52
2022-09-27T18:37:51.846Z,13.07
2022-09-27T18:40:38.408Z,13.05
2022-09-27T18:43:15.117Z,11.90
2022-09-27T18:46:31.008Z,18.77
2022-09-27T18:48:54.550Z,9.45
2022-09-27T18:51:31.073Z,11.02
2022-09-27T18:54:10.716Z,9.50
2022-09-27T18:56:53.259Z,10.77
2022-09-27T18:59:23.859Z,10.80
2022-09-27T19:02:03.301Z,10.73
2022-09-27T19:04:30.969Z,14.25
2022-09-27T19:12:17.124Z,15.07
2022-09-27T19:14:47.229Z,13.30
2022-09-27T19:17:17.047Z,15.00
2022-09-27T19:19:46.871Z,17.73
2022-09-27T19:22:18.474Z,15.40
2022-09-27T19:24:51.159Z,16.48
2022-09-27T19:27:24.185Z,15.48
2022-09-27T19:29:59.198Z,16.60
2022-09-27T19:32:51.415Z,17.45
2022-09-27T19:35:23.623Z,20.35
2022-09-27T19:37:51.379Z,17.40
2022-09-27T19:40:20.949Z,17.58
2022-09-27T19:42:59.939Z,16.45
2022-09-27T19:45:37.733Z,16.35
2022-09-27T19:48:05.306Z,16.00
2022-09-27T19:50:35.813Z,14.80
2022-09-27T19:53:03.644Z,15.25
2022-09-27T19:55:36.636Z,16.90
2022-09-27T19:58:10.288Z,13.38
2022-09-27T20:03:39.592Z,14.50
2022-09-27T20:06:10.015Z,14.68
2022-09-27T20:08:48.035Z,14.40
2022-09-27T20:11:16.921Z,14.23
2022-09-27T20:13:45.049Z,15.13
2022-09-27T20:19:03.242Z,14.95
2022-09-27T20:21:35.398Z,12.85
2022-09-27T20:24:06.354Z,16.00
2022-09-27T20:26:43.225Z,10.57
2022-09-27T20:29:11.509Z,13.27
2022-09-27T20:32:09.022Z,13.73
2022-09-27T20:34:33.380Z,15.80
2022-09-27T20:37:01.070Z,9.57
2022-09-27T20:39:35.143Z,13.18
2022-09-27T20:44:59.687Z,12.85
2022-09-27T20:47:29.906Z,12.02
2022-09-27T20:49:57.784Z,12.93
2022-09-27T20:52:34.907Z,10.75
2022-09-27T20:55:03.027Z,11.60
2022-09-27T20:57:53.207Z,10.60
2022-09-27T21:00:19.029Z,15.30
2022-09-27T21:02:46.834Z,10.85
2022-09-27T21:05:17.144Z,15.40
2022-09-27T21:07:48.279Z,11.77
2022-09-27T21:10:19.006Z,13.13
2022-09-27T21:12:53.470Z,11.93
2022-09-27T21:15:21.103Z,11.90
2022-09-27T21:18:03.173Z,12.10
2022-09-27T21:20:30.791Z,12.48
2022-09-27T21:23:10.131Z,11.48
2022-09-27T21:25:49.115Z,9.60
2022-09-27T21:28:17.804Z,12.50
2022-09-27T21:30:45.581Z,17.20
2022-09-27T21:33:13.186Z,16.35
2022-09-27T21:38:31.952Z,13.73
2022-09-27T21:41:01.975Z,10.73
2022-09-27T21:43:30.759Z,12.00
2022-09-27T21:46:08.606Z,13.10
2022-09-27T21:48:40.190Z,12.73
2022-09-27T21:51:07.922Z,13.75
2022-09-27T21:53:36.062Z,10.93
2022-09-27T21:56:06.718Z,15.10
2022-09-27T21:58:43.329Z,12.20
2022-09-27T22:01:13.723Z,10.63
2022-09-27T22:03:43.583Z,12.40
2022-09-27T22:06:26.684Z,12.07
2022-09-27T22:08:59.633Z,10.88
2022-09-27T22:11:30.223Z,13.05
2022-09-27T22:13:57.762Z,10.82
2022-09-27T22:16:32.975Z,13.23
2022-09-27T22:19:04.394Z,13.27
2022-09-27T22:21:40.781Z,10.18
2022-09-27T22:24:12.541Z,11.80
2022-09-27T22:26:41.251Z,10.93
2022-09-27T22:29:09.638Z,7.30
2022-09-27T22:31:37.677Z,6.43
2022-09-27T22:34:06.689Z,10.18
2022-09-27T22:36:35.031Z,13.18
2022-09-27T22:39:09.548Z,11.55
2022-09-27T22:41:46.022Z,9.82
2022-09-27T22:44:17.404Z,11.05
2022-09-27T22:46:48.913Z,15.07
2022-09-27T22:49:22.106Z,8.88
2022-09-27T22:51:50.615Z,11.57
2022-09-27T22:54:25.651Z,10.48
2022-09-27T22:56:58.294Z,11.55
2022-09-27T22:59:33.399Z,8.32
2022-09-27T23:02:00.814Z,9.73
2022-09-27T23:04:30.436Z,9.63
2022-09-27T23:09:29.917Z,14.48
2022-09-27T23:12:04.744Z,11.32
2022-09-27T23:14:40.448Z,12.77
2022-09-27T23:17:09.990Z,8.23
2022-09-27T23:19:52.258Z,11.40
2022-09-27T23:22:19.914Z,8.00
2022-09-27T23:24:49.417Z,8.57
2022-09-27T23:27:38.228Z,8.40
2022-09-27T23:30:11.992Z,8.15
2022-09-27T23:32:40.018Z,5.93
2022-09-27T23:35:16.620Z,6.80
2022-09-27T23:37:55.271Z,7.65
2022-09-27T23:40:23.454Z,6.93
2022-09-27T23:42:54.951Z,5.25
2022-09-27T23:45:29.289Z,5.88
2022-09-27T23:47:57.832Z,7.35
2022-09-27T23:50:32.555Z,7.10
2022-09-27T23:53:00.298Z,10.43
2022-09-27T23:55:27.910Z,6.93
2022-09-27T23:57:59.491Z,5.68
